Time;durP1;ratioP1;P1;durP2;ratioP2;P2;SDS_P1;SDS_P2;PMS_P1;PMS_P2;Temp;Humidity;BMP_temperature;BMP_pressure;BME280_temperature;BME280_humidity;BME280_pressure;Samples;Min_cycle;Max_cycle;Signal;HPM_P1;HPM_P2
2022/01/15 00:00:17;;;;;;;;;;;1.10;99.90;;;0.29;100.00;102136.88;4946747;28;19933;-76
2022/01/15 00:02:44;;;;;;;;;;;1.90;99.90;;;0.33;100.00;102143.09;4943900;28;19964;-77
2022/01/15 00:05:11;;;;;;;;;;;1.20;99.90;;;0.30;100.00;102141.25;4940758;28;19926;-76
2022/01/15 00:07:39;;;;;;;;;;;1.10;99.90;;;0.23;100.00;102137.47;4944689;28;19937;-76
2022/01/15 00:10:06;;;;;;;;;;;1.20;99.90;;;0.20;100.00;102131.28;4944083;29;19934;-77
2022/01/15 00:12:40;;;;;;;;;;;0.90;99.90;;;0.12;100.00;102123.16;4943770;28;19927;-76
2022/01/15 00:15:09;;;;;;;;;;;0.90;99.90;;;0.13;100.00;102127.53;4943983;28;19950;-76
2022/01/15 00:20:16;;;;;;;;;;;0.90;99.90;;;0.09;100.00;102123.91;4944399;28;20618;-76
2022/01/15 00:22:43;;;;;;;;;;;1.00;99.90;;;0.08;100.00;102123.81;4945177;28;19930;-77
2022/01/15 00:25:11;;;;;;;;;;;0.70;99.90;;;-0.04;100.00;102130.22;4943788;29;19988;-76
2022/01/15 00:27:39;;;;;;;;;;;0.90;99.90;;;0.02;100.00;102129.63;4928303;28;19937;-76
2022/01/15 00:30:06;;;;;;;;;;;1.00;99.90;;;-0.01;100.00;102132.03;4928125;29;20022;-76
2022/01/15 00:32:33;;;;;;;;;;;0.80;99.90;;;0.01;100.00;102122.66;4927804;29;20963;-76
2022/01/15 00:35:00;;;;;;;;;;;0.80;99.90;;;0.03;100.00;102121.03;4945262;28;19938;-76
2022/01/15 00:37:31;;;;;;;;;;;0.90;99.90;;;0.03;100.00;102112.38;4945669;28;19927;-76
2022/01/15 00:40:03;;;;;;;;;;;0.80;99.90;;;0.06;100.00;102110.81;4945463;28;20017;-76
2022/01/15 00:42:32;;;;;;;;;;;0.90;99.90;;;0.04;100.00;102114.13;4945090;28;20376;-76
2022/01/15 00:45:01;;;;;;;;;;;0.90;99.90;;;0.07;100.00;102116.88;4928309;29;19938;-76
2022/01/15 00:47:31;;;;;;;;;;;0.80;99.90;;;0.16;100.00;102111.22;4945539;28;19926;-76
2022/01/15 00:49:59;;;;;;;;;;;1.00;99.90;;;0.19;100.00;102114.88;4943955;29;19926;-76
2022/01/15 00:52:26;;;;;;;;;;;1.50;99.90;;;0.15;100.00;102112.94;4945031;28;20048;-76
2022/01/15 00:54:53;;;;;;;;;;;0.80;99.90;;;0.12;100.00;102118.88;4943567;29;20009;-76
2022/01/15 00:57:20;;;;;;;;;;;2.00;99.90;;;0.06;100.00;102102.16;4945221;28;19997;-77
2022/01/15 00:59:47;;;;;;;;;;;0.90;99.90;;;0.03;100.00;102102.91;4943471;28;19926;-76
2022/01/15 01:02:15;;;;;;;;;;;0.80;99.90;;;-0.02;100.00;102100.09;4927308;29;20413;-76
2022/01/15 01:04:42;;;;;;;;;;;1.00;99.90;;;0.02;100.00;102118.34;4938689;29;19937;-76
2022/01/15 01:07:10;;;;;;;;;;;0.80;99.90;;;0.02;100.00;102115.78;4958648;28;19938;-76
2022/01/15 01:23:42;;;;;;;;;;;0.80;99.90;;;-0.15;100.00;102111.59;4923063;29;19973;-76
2022/01/15 01:26:25;;;;;;;;;;;0.90;99.90;;;-0.08;100.00;102110.19;4908944;29;20028;-76
2022/01/15 01:29:12;;;;;;;;;;;0.90;99.90;;;-0.06;100.00;102105.97;4925399;29;20366;-76
2022/01/15 01:31:53;;;;;;;;;;;0.70;99.90;;;-0.13;100.00;102113.34;4924420;29;19937;-76
2022/01/15 01:34:22;;;;;;;;;;;0.80;99.90;;;-0.19;100.00;102107.06;4924309;29;19935;-75
2022/01/15 01:39:20;;;;;;;;;;;0.60;99.90;;;-0.10;100.00;102106.59;4925402;29;19938;-76
2022/01/15 01:42:39;;;;;;;;;;;0.50;99.90;;;-0.13;100.00;102101.28;4925379;29;20410;-77
2022/01/15 01:44:41;;;;;;;;;;;0.60;99.90;;;-0.06;100.00;102100.78;4917488;28;19927;-76
2022/01/15 01:47:24;;;;;;;;;;;0.70;99.90;;;-0.08;100.00;102093.75;4908424;29;19942;-77
2022/01/15 01:49:50;;;;;;;;;;;0.70;99.90;;;-0.11;100.00;102094.47;4924216;29;19946;-76
2022/01/15 01:52:20;;;;;;;;;;;0.90;99.90;;;-0.12;100.00;102086.66;4924735;29;19934;-75
2022/01/15 01:54:47;;;;;;;;;;;0.90;99.90;;;-0.06;100.00;102090.44;4930355;28;19937;-75
2022/01/15 01:57:14;;;;;;;;;;;0.80;99.90;;;-0.04;100.00;102080.13;4927748;29;19931;-76
2022/01/15 01:59:41;;;;;;;;;;;1.80;99.90;;;-0.06;100.00;102082.66;4946325;28;19931;-77
2022/01/15 02:02:08;;;;;;;;;;;0.70;99.90;;;-0.04;100.00;102083.63;4927110;29;19931;-75
2022/01/15 02:04:35;;;;;;;;;;;0.70;99.90;;;-0.10;100.00;102083.31;4941632;28;20028;-76
2022/01/15 02:07:03;;;;;;;;;;;0.60;99.90;;;-0.12;100.00;102082.34;4942390;29;19946;-76
2022/01/15 02:09:30;;;;;;;;;;;0.70;99.90;;;-0.16;100.00;102075.28;4943626;28;19930;-76
2022/01/15 02:11:57;;;;;;;;;;;0.70;99.90;;;-0.12;100.00;102079.78;4943440;29;19937;-76
2022/01/15 02:14:28;;;;;;;;;;;0.60;99.90;;;-0.08;100.00;102078.22;4926753;28;19964;-76
2022/01/15 02:16:56;;;;;;;;;;;0.60;99.90;;;-0.14;100.00;102076.22;4942885;28;19934;-76
2022/01/15 02:19:32;;;;;;;;;;;0.80;99.90;;;-0.21;100.00;102072.47;4944629;29;20299;-76
2022/01/15 02:24:54;;;;;;;;;;;0.80;99.90;;;-0.24;100.00;102074.91;4944656;28;19934;-75
2022/01/15 02:27:21;;;;;;;;;;;0.90;99.90;;;-0.20;100.00;102071.63;4941927;28;19934;-75
2022/01/15 02:29:48;;;;;;;;;;;0.70;99.90;;;-0.17;100.00;102078.69;4945792;28;19957;-75
2022/01/15 02:32:15;;;;;;;;;;;0.60;99.90;;;-0.16;100.00;102072.69;4946807;28;19931;-76
2022/01/15 02:34:42;;;;;;;;;;;0.70;99.90;;;-0.17;100.00;102068.31;4946660;28;19927;-77
2022/01/15 02:37:09;;;;;;;;;;;0.70;99.90;;;-0.16;100.00;102073.59;4946269;29;19934;-76
2022/01/15 02:39:36;;;;;;;;;;;0.80;99.90;;;-0.13;100.00;102065.06;4947167;28;19934;-76
2022/01/15 02:42:03;;;;;;;;;;;0.60;99.90;;;-0.15;100.00;102065.00;4946006;29;19930;-75
2022/01/15 02:44:47;;;;;;;;;;;0.50;99.90;;;-0.23;100.00;102063.75;4931214;29;19918;-76
2022/01/15 02:50:00;;;;;;;;;;;0.40;99.90;;;-0.22;100.00;102067.22;4945811;28;20008;-78
2022/01/15 02:52:27;;;;;;;;;;;0.60;99.90;;;-0.21;100.00;102071.59;4946192;28;20014;-76
2022/01/15 02:54:53;;;;;;;;;;;0.60;99.90;;;-0.16;100.00;102076.16;4944824;29;19945;-76
2022/01/15 02:57:20;;;;;;;;;;;0.70;99.90;;;-0.18;100.00;102069.13;4945601;29;19931;-76
2022/01/15 02:59:47;;;;;;;;;;;0.60;99.90;;;-0.18;100.00;102069.13;4946997;28;19937;-75
2022/01/15 03:02:14;;;;;;;;;;;0.70;99.90;;;-0.20;100.00;102065.59;4944900;28;19931;-75
2022/01/15 03:04:41;;;;;;;;;;;1.20;99.90;;;-0.17;100.00;102065.75;4941158;29;19946;-76
2022/01/15 03:07:08;;;;;;;;;;;3.60;99.90;;;-0.19;100.00;102062.19;4926418;29;20307;-76
2022/01/15 03:09:35;;;;;;;;;;;0.70;99.90;;;-0.22;100.00;102062.94;4926332;29;19938;-76
2022/01/15 03:12:03;;;;;;;;;;;0.60;99.90;;;-0.11;100.00;102059.97;4926294;28;19939;-76
2022/01/15 03:14:33;;;;;;;;;;;0.50;99.90;;;-0.10;100.00;102057.44;4924760;29;19931;-75
2022/01/15 03:17:00;;;;;;;;;;;0.40;99.90;;;-0.11;100.00;102054.78;4927568;29;19962;-76
2022/01/15 03:19:42;;;;;;;;;;;0.60;99.90;;;-0.08;100.00;102057.53;4926630;29;19937;-75
2022/01/15 03:22:12;;;;;;;;;;;0.80;99.90;;;-0.14;100.00;102050.34;4910016;29;19938;-76
2022/01/15 03:24:39;;;;;;;;;;;0.80;99.90;;;-0.12;100.00;102046.13;4925625;29;19930;-77
2022/01/15 03:27:07;;;;;;;;;;;0.70;99.90;;;-0.17;100.00;102045.03;4942955;28;20382;-75
2022/01/15 03:29:33;;;;;;;;;;;1.00;99.90;;;-0.20;100.00;102047.50;4963229;28;19930;-76
2022/01/15 03:32:01;;;;;;;;;;;0.80;99.90;;;-0.13;100.00;102046.94;4964350;28;19945;-76
2022/01/15 03:34:28;;;;;;;;;;;0.70;99.90;;;-0.10;100.00;102038.44;4945553;28;19954;-75
2022/01/15 03:36:54;;;;;;;;;;;0.70;99.90;;;-0.06;100.00;102036.09;4928399;29;19931;-76
2022/01/15 03:39:21;;;;;;;;;;;0.80;99.90;;;-0.03;100.00;102028.47;4949711;28;19930;-76
2022/01/15 03:41:51;;;;;;;;;;;0.80;99.90;;;-0.06;100.00;102020.56;4929007;29;19937;-75
2022/01/15 03:44:18;;;;;;;;;;;2.70;99.90;;;-0.04;100.00;102024.09;4945093;28;19938;-76
2022/01/15 03:46:45;;;;;;;;;;;0.70;99.90;;;0.00;100.00;102022.56;4928753;29;19950;-76
2022/01/15 03:49:12;;;;;;;;;;;0.70;99.90;;;0.00;100.00;102017.38;4944622;28;19945;-76
2022/01/15 03:51:39;;;;;;;;;;;0.80;99.90;;;-0.03;100.00;102006.84;4945165;29;19937;-76
2022/01/15 03:54:06;;;;;;;;;;;3.00;99.90;;;-0.05;100.00;102004.22;4943766;29;19938;-76
2022/01/15 03:56:32;;;;;;;;;;;1.00;99.90;;;-0.01;100.00;101997.44;4946626;28;19932;-75
2022/01/15 03:58:59;;;;;;;;;;;3.90;99.90;;;0.05;100.00;101994.25;4929148;29;19945;-76
2022/01/15 04:01:26;;;;;;;;;;;2.80;99.90;;;0.02;100.00;101988.94;4945534;28;20576;-76
2022/01/15 04:03:56;;;;;;;;;;;0.70;99.90;;;-0.02;100.00;101983.66;4961081;28;20458;-76
2022/01/15 04:06:26;;;;;;;;;;;0.90;99.90;;;0.02;100.00;101978.59;4957921;28;19930;-76
2022/01/15 04:08:53;;;;;;;;;;;0.70;99.90;;;0.03;100.00;101983.88;4963762;28;19930;-76
2022/01/15 04:11:20;;;;;;;;;;;3.40;99.90;;;0.11;100.00;101976.44;4948060;28;19930;-77
2022/01/15 04:13:47;;;;;;;;;;;2.40;99.90;;;0.06;100.00;101981.41;4962665;28;20374;-76
2022/01/15 04:16:14;;;;;;;;;;;0.90;99.90;;;0.08;100.00;101974.59;4964882;28;19976;-76
2022/01/15 04:18:41;;;;;;;;;;;0.80;99.90;;;0.08;100.00;101984.03;4963373;28;19934;-76
2022/01/15 04:21:11;;;;;;;;;;;2.40;99.90;;;0.08;100.00;101982.34;4963650;28;19930;-76
2022/01/15 04:23:38;;;;;;;;;;;0.80;99.90;;;0.06;100.00;101978.81;4962412;28;19937;-77
2022/01/15 04:26:05;;;;;;;;;;;0.90;99.90;;;0.14;100.00;101989.50;4964240;28;20307;-76
2022/01/15 04:28:34;;;;;;;;;;;0.80;99.90;;;0.15;100.00;101988.69;4963360;28;20473;-76
2022/01/15 04:31:08;;;;;;;;;;;0.90;99.90;;;0.12;100.00;101980.81;4941167;28;20311;-77
2022/01/15 04:33:37;;;;;;;;;;;0.80;99.90;;;0.10;100.00;101972.94;4923622;29;19931;-76
2022/01/15 04:36:05;;;;;;;;;;;0.80;99.90;;;0.17;100.00;101978.44;4894170;29;19930;-76
2022/01/15 04:38:36;;;;;;;;;;;1.00;99.90;;;0.15;100.00;101978.34;4924858;29;20380;-75
2022/01/15 04:41:08;;;;;;;;;;;0.90;99.90;;;0.06;100.00;101976.22;4924492;29;20678;-75
2022/01/15 04:43:35;;;;;;;;;;;1.00;99.90;;;0.11;100.00;101977.31;4907813;29;19937;-76
2022/01/15 04:46:02;;;;;;;;;;;0.90;99.90;;;0.05;100.00;101983.91;4909328;29;19942;-75
2022/01/15 04:48:29;;;;;;;;;;;0.90;99.90;;;0.00;100.00;101981.13;4908743;29;19931;-75
2022/01/15 04:50:56;;;;;;;;;;;1.10;99.90;;;0.06;100.00;101977.91;4908911;29;19935;-76
2022/01/15 04:53:23;;;;;;;;;;;0.90;99.90;;;0.09;100.00;101981.53;4923846;29;19931;-76
2022/01/15 04:55:50;;;;;;;;;;;1.10;99.90;;;0.07;100.00;101980.59;4924990;29;19931;-76
2022/01/15 04:58:17;;;;;;;;;;;0.90;99.90;;;0.13;100.00;101979.97;4924623;29;20347;-76
2022/01/15 05:00:44;;;;;;;;;;;0.60;99.90;;;0.09;100.00;101971.19;4922914;29;19931;-74
2022/01/15 05:03:11;;;;;;;;;;;0.90;99.90;;;0.06;100.00;101978.81;4940946;29;20395;-76
2022/01/15 05:05:38;;;;;;;;;;;0.90;99.90;;;0.07;100.00;101983.16;4930854;29;19930;-76
2022/01/15 05:08:06;;;;;;;;;;;0.80;99.90;;;0.09;100.00;101991.88;4943461;28;19931;-76
2022/01/15 05:10:33;;;;;;;;;;;0.80;99.90;;;0.04;100.00;101982.13;4943499;29;19949;-76
2022/01/15 05:13:02;;;;;;;;;;;0.90;99.90;;;0.08;100.00;101984.94;4927751;28;19934;-75
2022/01/15 05:15:29;;;;;;;;;;;0.80;99.90;;;0.10;100.00;101982.44;4943891;29;19931;-75
2022/01/15 05:17:56;;;;;;;;;;;0.90;99.90;;;0.11;100.00;101989.38;4959921;28;20477;-76
2022/01/15 05:20:22;;;;;;;;;;;1.20;99.90;;;0.13;100.00;101985.16;4945828;28;19931;-76
2022/01/15 05:22:50;;;;;;;;;;;0.80;99.90;;;0.12;100.00;101983.38;4945010;29;19937;-76
2022/01/15 05:25:18;;;;;;;;;;;2.50;99.90;;;0.14;100.00;101981.75;4945367;28;19930;-75
2022/01/15 05:27:47;;;;;;;;;;;0.80;99.90;;;0.10;100.00;101983.31;4959610;28;19937;-76
2022/01/15 05:30:14;;;;;;;;;;;0.90;99.90;;;0.14;100.00;101985.22;4944848;28;19931;-76
2022/01/15 05:32:41;;;;;;;;;;;1.30;99.90;;;0.06;100.00;101973.63;4944947;28;19930;-76
2022/01/15 05:35:09;;;;;;;;;;;2.30;99.90;;;0.05;100.00;101970.97;4944107;29;19927;-76
2022/01/15 05:37:36;;;;;;;;;;;1.00;99.90;;;0.05;100.00;101978.72;4943669;29;19938;-76
2022/01/15 05:40:04;;;;;;;;;;;0.90;99.90;;;0.09;100.00;101978.09;4942336;29;19976;-76
2022/01/15 05:42:31;;;;;;;;;;;0.90;99.90;;;0.04;100.00;101976.97;4927540;29;19934;-76
2022/01/15 05:44:58;;;;;;;;;;;2.70;99.90;;;0.01;100.00;101988.09;4927796;29;19937;-76
2022/01/15 05:47:25;;;;;;;;;;;1.30;99.90;;;0.04;100.00;101984.72;4927099;29;19931;-75
2022/01/15 05:49:52;;;;;;;;;;;0.80;99.90;;;-0.03;100.00;101973.22;4912163;29;20354;-76
2022/01/15 05:52:19;;;;;;;;;;;1.00;99.90;;;0.01;100.00;101977.72;4928204;28;19931;-76
2022/01/15 05:54:45;;;;;;;;;;;0.90;99.90;;;0.04;100.00;101970.09;4933060;29;19937;-76
2022/01/15 05:57:12;;;;;;;;;;;0.90;99.90;;;0.02;100.00;101963.06;4927938;28;19930;-76
2022/01/15 05:59:39;;;;;;;;;;;0.80;99.90;;;0.04;100.00;101972.69;4932042;29;19944;-75
2022/01/15 06:02:07;;;;;;;;;;;1.10;99.90;;;0.04;100.00;101967.50;4945453;29;19976;-75
2022/01/15 06:04:34;;;;;;;;;;;0.80;99.90;;;0.04;100.00;101966.63;4946947;28;20000;-76
2022/01/15 06:07:02;;;;;;;;;;;0.90;99.90;;;0.05;100.00;101976.16;4949903;28;19935;-76
2022/01/15 06:09:29;;;;;;;;;;;0.90;99.90;;;0.04;100.00;101967.50;4947960;28;20588;-76
2022/01/15 06:11:56;;;;;;;;;;;0.90;99.90;;;0.01;100.00;101967.38;4931042;28;19953;-76
2022/01/15 06:14:23;;;;;;;;;;;0.80;99.90;;;0.08;100.00;101960.75;4946621;29;20650;-76
2022/01/15 06:16:50;;;;;;;;;;;0.70;99.90;;;0.12;100.00;101962.69;4947925;28;19938;-75
2022/01/15 06:19:17;;;;;;;;;;;0.90;99.90;;;0.15;100.00;101957.63;4946404;29;19980;-76
2022/01/15 06:21:44;;;;;;;;;;;0.90;99.90;;;0.13;100.00;101956.69;4946152;29;20307;-76
2022/01/15 06:24:11;;;;;;;;;;;1.70;99.90;;;0.18;100.00;101952.59;4942139;28;19930;-75
2022/01/15 06:26:38;;;;;;;;;;;0.90;99.90;;;0.18;100.00;101946.53;4947443;28;19930;-76
2022/01/15 06:29:05;;;;;;;;;;;1.00;99.90;;;0.19;100.00;101936.22;4947501;28;19937;-75
2022/01/15 06:31:32;;;;;;;;;;;1.00;99.90;;;0.21;100.00;101942.34;4946597;29;19930;-76
2022/01/15 06:34:00;;;;;;;;;;;1.00;99.90;;;0.22;100.00;101946.72;4929544;28;19937;-77
2022/01/15 06:36:27;;;;;;;;;;;1.00;99.90;;;0.22;100.00;101944.13;4928552;29;19941;-78
2022/01/15 06:38:54;;;;;;;;;;;0.90;99.90;;;0.24;100.00;101941.63;4945504;28;19960;-77
2022/01/15 06:41:24;;;;;;;;;;;1.30;99.90;;;0.27;100.00;101945.25;4949368;28;19938;-77
2022/01/15 06:43:51;;;;;;;;;;;1.00;99.90;;;0.30;100.00;101941.88;4930115;29;19931;-76
2022/01/15 06:46:18;;;;;;;;;;;0.90;99.90;;;0.33;100.00;101952.38;4931668;29;19930;-76
2022/01/15 06:48:45;;;;;;;;;;;2.70;99.90;;;0.34;100.00;101948.06;4971914;28;19931;-75
2022/01/15 06:51:12;;;;;;;;;;;2.00;99.90;;;0.33;100.00;101942.03;4952568;29;19937;-77
2022/01/15 06:53:39;;;;;;;;;;;2.60;99.90;;;0.38;100.00;101937.94;4947682;29;19930;-77
2022/01/15 06:56:06;;;;;;;;;;;2.40;99.90;;;0.33;100.00;101939.44;4948445;29;19926;-77
2022/01/15 06:58:33;;;;;;;;;;;3.50;99.90;;;0.37;100.00;101927.50;4931626;29;20641;-77
2022/01/15 07:01:00;;;;;;;;;;;1.20;99.90;;;0.36;100.00;101928.31;4946788;29;19931;-77
2022/01/15 07:03:27;;;;;;;;;;;1.10;99.90;;;0.39;100.00;101933.63;4931426;29;19934;-77
2022/01/15 07:05:54;;;;;;;;;;;1.10;99.90;;;0.37;100.00;101936.16;4947470;28;19931;-77
2022/01/15 07:08:21;;;;;;;;;;;1.20;99.90;;;0.39;100.00;101934.50;4961945;28;19930;-78
2022/01/15 07:10:48;;;;;;;;;;;1.10;99.90;;;0.42;100.00;101939.81;4951103;28;19931;-77
2022/01/15 07:13:19;;;;;;;;;;;1.30;99.90;;;0.41;100.00;101955.31;4914047;29;19941;-77
2022/01/15 07:15:47;;;;;;;;;;;2.60;99.90;;;0.40;100.00;101954.41;4945830;29;19934;-77
2022/01/15 07:18:15;;;;;;;;;;;1.10;99.90;;;0.41;100.00;101953.59;4956424;28;19930;-77
2022/01/15 07:20:43;;;;;;;;;;;1.20;99.90;;;0.48;100.00;101939.19;4930047;29;19938;-77
2022/01/15 07:23:10;;;;;;;;;;;1.10;99.90;;;0.50;100.00;101944.47;4946026;29;19931;-77
2022/01/15 07:25:36;;;;;;;;;;;1.30;99.90;;;0.51;100.00;101935.88;4946175;29;19934;-77
2022/01/15 07:28:04;;;;;;;;;;;1.20;99.90;;;0.49;100.00;101942.69;4945465;28;20676;-77
2022/01/15 07:30:30;;;;;;;;;;;1.30;99.90;;;0.50;100.00;101936.69;4945628;29;19930;-77
2022/01/15 07:32:57;;;;;;;;;;;1.20;99.90;;;0.46;100.00;101935.66;4946721;28;19934;-77
2022/01/15 07:35:24;;;;;;;;;;;1.40;99.90;;;0.46;100.00;101939.94;4930054;29;19930;-77
2022/01/15 07:37:51;;;;;;;;;;;1.20;99.90;;;0.48;100.00;101938.34;4936683;29;20286;-77
2022/01/15 07:40:18;;;;;;;;;;;3.10;99.90;;;0.48;100.00;101934.03;4945660;28;20618;-78
2022/01/15 07:42:45;;;;;;;;;;;1.30;99.90;;;0.49;100.00;101934.94;4894974;29;19930;-78
2022/01/15 07:45:15;;;;;;;;;;;1.40;99.90;;;0.47;100.00;101936.53;4927028;29;19927;-77
2022/01/15 07:47:43;;;;;;;;;;;1.30;99.90;;;0.49;100.00;101928.03;4927446;29;19927;-77
2022/01/15 07:50:17;;;;;;;;;;;1.10;99.90;;;0.45;100.00;101925.22;4910793;29;20685;-77
2022/01/15 07:52:44;;;;;;;;;;;1.20;99.90;;;0.49;100.00;101928.03;4926211;29;19942;-77
2022/01/15 07:55:11;;;;;;;;;;;3.50;99.90;;;0.54;100.00;101930.81;4925988;29;19931;-77
2022/01/15 07:57:58;;;;;;;;;;;1.30;99.90;;;0.58;100.00;101929.25;4926491;29;19934;-76
2022/01/15 08:00:26;;;;;;;;;;;1.30;99.90;;;0.61;100.00;101935.41;4927823;29;20737;-77
2022/01/15 08:02:54;;;;;;;;;;;1.90;99.90;;;0.64;100.00;101937.25;4929918;29;19927;-77
2022/01/15 08:05:21;;;;;;;;;;;3.30;99.90;;;0.62;100.00;101933.72;4945103;28;19930;-76
2022/01/15 08:07:48;;;;;;;;;;;3.20;99.90;;;0.66;100.00;101927.84;4945724;28;19926;-76
2022/01/15 08:10:15;;;;;;;;;;;2.40;99.90;;;0.67;100.00;101935.69;4945845;28;20378;-77
2022/01/15 08:12:47;;;;;;;;;;;1.40;99.90;;;0.67;100.00;101933.09;4945430;28;19942;-76
2022/01/15 08:15:15;;;;;;;;;;;1.40;99.90;;;0.63;100.00;101928.63;4932548;28;20494;-76
2022/01/15 08:17:42;;;;;;;;;;;2.70;99.90;;;0.64;100.00;101932.09;4944672;29;19930;-76
2022/01/15 08:20:10;;;;;;;;;;;1.50;99.90;;;0.66;100.00;101923.56;4945689;28;19954;-76
2022/01/15 08:22:39;;;;;;;;;;;1.50;99.90;;;0.69;100.00;101920.19;4944091;29;19957;-76
2022/01/15 08:25:07;;;;;;;;;;;3.70;99.90;;;0.69;100.00;101927.97;4944604;29;19930;-76
2022/01/15 08:27:34;;;;;;;;;;;1.50;99.90;;;0.75;100.00;101915.28;4944206;29;19930;-76
2022/01/15 08:30:01;;;;;;;;;;;1.60;99.90;;;0.78;100.00;101927.47;4944696;28;20509;-77
2022/01/15 08:32:28;;;;;;;;;;;1.50;99.90;;;0.77;100.00;101925.69;4943753;29;20627;-77
2022/01/15 08:34:55;;;;;;;;;;;1.30;99.90;;;0.76;100.00;101918.75;4944446;28;19931;-77
2022/01/15 08:37:22;;;;;;;;;;;1.40;99.90;;;0.81;100.00;101923.31;4944984;28;19930;-76
2022/01/15 08:39:49;;;;;;;;;;;1.70;99.90;;;0.84;100.00;101920.84;4941871;29;19930;-76
2022/01/15 08:42:16;;;;;;;;;;;2.60;99.90;;;0.85;100.00;101924.31;4960353;28;19942;-76
2022/01/15 08:44:44;;;;;;;;;;;2.70;99.90;;;0.88;100.00;101928.75;4960236;28;19942;-77
2022/01/15 08:47:12;;;;;;;;;;;3.80;99.90;;;0.87;100.00;101927.84;4960143;28;19937;-76
2022/01/15 08:49:39;;;;;;;;;;;3.10;99.90;;;0.88;100.00;101929.63;4960218;28;19957;-77
2022/01/15 08:52:07;;;;;;;;;;;2.50;99.90;;;0.94;100.00;101926.41;4944732;29;19937;-76
2022/01/15 08:54:34;;;;;;;;;;;3.80;99.90;;;0.97;100.00;101929.13;4945669;28;19937;-76
2022/01/15 08:57:02;;;;;;;;;;;1.60;99.90;;;1.03;100.00;101925.88;4945927;28;19970;-76
2022/01/15 08:59:29;;;;;;;;;;;1.70;99.90;;;1.08;100.00;101933.03;4944226;29;20296;-78
2022/01/15 09:01:59;;;;;;;;;;;3.00;99.90;;;1.05;100.00;101929.44;4944347;29;19937;-76
2022/01/15 09:04:26;;;;;;;;;;;1.70;99.90;;;1.06;100.00;101921.72;4944995;28;19927;-76
2022/01/15 09:06:54;;;;;;;;;;;1.80;99.90;;;1.13;100.00;101923.72;4943739;29;20049;-77
2022/01/15 09:09:21;;;;;;;;;;;1.80;99.90;;;1.15;100.00;101926.38;4959684;28;19926;-77
2022/01/15 09:11:48;;;;;;;;;;;1.70;99.90;;;1.17;100.00;101914.38;4938779;29;19926;-77
2022/01/15 09:14:15;;;;;;;;;;;3.60;99.90;;;1.11;100.00;101921.91;4944639;29;19945;-76
2022/01/15 09:16:42;;;;;;;;;;;1.90;99.90;;;1.18;100.00;101917.84;4928396;29;20005;-77
2022/01/15 09:19:11;;;;;;;;;;;1.90;99.90;;;1.17;100.00;101922.16;4946035;28;19927;-78
2022/01/15 09:21:38;;;;;;;;;;;2.00;99.90;;;1.18;100.00;101913.53;4932170;29;20403;-78
2022/01/15 09:24:05;;;;;;;;;;;2.80;99.90;;;1.23;100.00;101916.31;4931560;29;19936;-77
2022/01/15 09:32:07;;;;;;;;;;;2.00;99.90;;;1.26;100.00;101906.97;4930291;29;19938;-77
2022/01/15 09:34:35;;;;;;;;;;;5.10;99.90;;;1.37;100.00;101909.06;4913192;29;20030;-78
2022/01/15 09:37:06;;;;;;;;;;;2.10;99.90;;;1.46;100.00;101893.88;4932929;29;19930;-80
2022/01/15 09:39:34;;;;;;;;;;;2.30;99.90;;;1.44;100.00;101889.44;4946976;29;20797;-78
2022/01/15 09:42:01;;;;;;;;;;;2.30;99.90;;;1.47;100.00;101897.34;4948257;29;19938;-77
2022/01/15 09:44:28;;;;;;;;;;;4.00;99.90;;;1.53;100.00;101888.06;4947240;28;19957;-78
2022/01/15 09:46:56;;;;;;;;;;;2.10;99.90;;;1.56;100.00;101895.09;4931956;29;20588;-77
2022/01/15 09:49:24;;;;;;;;;;;4.30;99.90;;;1.58;100.00;101893.44;4949422;28;19934;-82
2022/01/15 09:51:51;;;;;;;;;;;2.00;99.90;;;1.57;100.00;101885.63;4920760;29;19930;-81
2022/01/15 09:54:18;;;;;;;;;;;2.40;99.90;;;1.55;100.00;101889.00;4929884;29;19935;-79
2022/01/15 09:56:46;;;;;;;;;;;3.40;99.90;;;1.61;100.00;101880.56;4930459;29;19976;-81
2022/01/15 09:59:14;;;;;;;;;;;2.30;99.90;;;1.67;100.00;101880.81;4916392;29;19938;-81
2022/01/15 10:01:42;;;;;;;;;;;-0.10;99.90;;;1.70;100.00;101880.03;4915516;29;20038;-79
2022/01/15 10:04:09;;;;;;;;;;;2.50;99.90;;;1.68;100.00;101877.41;4936109;29;19930;-79
2022/01/15 10:06:36;;;;;;;;;;;2.30;99.90;;;1.78;100.00;101881.22;4948002;29;20330;-79
2022/01/15 10:09:06;;;;;;;;;;;2.30;99.90;;;1.71;100.00;101884.38;4947088;28;19937;-78
2022/01/15 10:11:51;;;;;;;;;;;2.70;99.90;;;1.80;100.00;101883.88;5011550;28;20579;-78
2022/01/15 10:14:28;;;;;;;;;;;2.40;99.90;;;1.82;100.00;101874.44;4982622;28;19934;-76
2022/01/15 10:16:57;;;;;;;;;;;2.60;99.90;;;1.83;100.00;101866.69;4946486;29;19974;-75
2022/01/15 10:19:37;;;;;;;;;;;4.60;99.90;;;1.88;100.00;101871.19;4930592;29;19937;-75
2022/01/15 10:22:06;;;;;;;;;;;2.60;99.90;;;1.91;100.00;101851.38;4947934;28;19966;-76
2022/01/15 10:24:33;;;;;;;;;;;2.50;99.90;;;1.93;100.00;101851.44;4930742;29;19937;-77
2022/01/15 10:27:21;;;;;;;;;;;3.00;99.90;;;2.00;100.00;101852.56;4931979;29;19930;-76
2022/01/15 10:29:59;;;;;;;;;;;2.60;99.90;;;2.01;100.00;101841.34;4948191;29;20036;-77
2022/01/15 10:32:29;;;;;;;;;;;4.00;99.90;;;2.04;100.00;101838.84;4932497;29;19941;-76
2022/01/15 10:34:56;;;;;;;;;;;4.20;99.90;;;2.06;100.00;101838.06;4930966;29;19930;-77
2022/01/15 10:37:27;;;;;;;;;;;4.70;99.90;;;2.10;100.00;101845.13;4932251;29;19941;-77
2022/01/15 10:40:07;;;;;;;;;;;3.90;99.90;;;2.02;100.00;101846.56;4929682;29;20493;-76
2022/01/15 10:42:35;;;;;;;;;;;2.70;99.90;;;2.06;100.00;101840.66;4946885;29;20545;-78
2022/01/15 10:45:13;;;;;;;;;;;5.40;99.90;;;2.11;100.00;101839.09;4947398;29;19942;-77
2022/01/15 10:47:43;;;;;;;;;;;2.80;99.90;;;2.11;100.00;101841.69;4947746;29;20000;-76
2022/01/15 10:50:25;;;;;;;;;;;2.70;99.90;;;2.05;100.00;101836.31;4947127;29;19946;-75
2022/01/15 10:52:53;;;;;;;;;;;2.80;99.90;;;2.15;100.00;101834.00;4948345;28;19945;-77
2022/01/15 10:55:26;;;;;;;;;;;4.70;99.90;;;2.25;100.00;101841.28;4946438;28;19931;-77
2022/01/15 10:57:59;;;;;;;;;;;2.80;99.90;;;2.24;100.00;101832.59;4952341;28;19930;-74
2022/01/15 11:00:37;;;;;;;;;;;2.90;99.90;;;2.26;100.00;101833.56;4930977;29;19926;-77
2022/01/15 11:03:10;;;;;;;;;;;2.90;99.90;;;2.32;100.00;101832.88;4947188;29;19930;-75
2022/01/15 11:05:45;;;;;;;;;;;3.00;99.90;;;2.32;100.00;101838.06;4947248;28;19930;-75
2022/01/15 11:08:16;;;;;;;;;;;3.10;99.90;;;2.33;100.00;101839.81;4937538;28;19926;-78
2022/01/15 11:10:46;;;;;;;;;;;3.00;99.90;;;2.38;100.00;101832.19;4936050;29;19935;-77
2022/01/15 11:13:19;;;;;;;;;;;3.10;99.90;;;2.39;100.00;101823.56;4949174;28;19969;-79
2022/01/15 11:15:48;;;;;;;;;;;5.10;99.90;;;2.44;100.00;101816.81;4946602;28;20298;-76
2022/01/15 11:18:24;;;;;;;;;;;3.10;99.90;;;2.41;100.00;101816.69;4962039;28;20351;-78
2022/01/15 11:20:53;;;;;;;;;;;3.10;99.90;;;2.49;100.00;101810.06;4962136;28;20353;-77
2022/01/15 11:23:22;;;;;;;;;;;3.80;99.90;;;2.51;100.00;101804.91;4980397;28;19958;-78
2022/01/15 11:25:50;;;;;;;;;;;3.00;99.90;;;2.58;100.00;101803.41;4980189;28;19926;-78
2022/01/15 11:28:19;;;;;;;;;;;5.30;99.90;;;2.62;100.00;101790.53;4964644;28;19926;-78
2022/01/15 11:30:48;;;;;;;;;;;3.20;99.90;;;2.65;100.00;101792.34;4965854;28;20423;-77
2022/01/15 11:33:20;;;;;;;;;;;3.20;99.90;;;2.64;100.00;101786.25;4979921;28;19949;-76
2022/01/15 11:35:48;;;;;;;;;;;3.90;99.90;;;2.66;100.00;101784.63;4977041;28;19926;-75
2022/01/15 11:38:41;;;;;;;;;;;3.40;99.90;;;2.66;100.00;101786.31;4945347;29;19935;-76
2022/01/15 11:41:27;;;;;;;;;;;3.30;99.90;;;2.70;100.00;101775.19;4947079;28;19927;-76
2022/01/15 11:43:59;;;;;;;;;;;3.70;99.90;;;2.81;100.00;101775.50;4935355;29;19931;-79
2022/01/15 11:46:31;;;;;;;;;;;3.40;99.90;;;2.87;100.00;101765.31;4913533;29;19927;-79
2022/01/15 11:49:36;;;;;;;;;;;3.50;99.90;;;2.90;100.00;101765.41;4926838;29;19927;-78
2022/01/15 11:52:05;;;;;;;;;;;3.40;99.90;;;2.94;100.00;101766.38;4928668;29;19931;-77